sensor_id;sensor_type;location;lat;lon;timestamp;pressure;altitude;pressure_sealevel;temperature;humidity
740;BME280;354;42.694;23.336;2023-03-01T00:01:37;95792.78;;;7.52;100.00
740;BME280;354;42.694;23.336;2023-03-01T00:04:02;95792.84;;;7.44;100.00
740;BME280;354;42.694;23.336;2023-03-01T00:06:28;95784.34;;;7.27;100.00
740;BME280;354;42.694;23.336;2023-03-01T00:08:53;95772.25;;;7.26;100.00
740;BME280;354;42.694;23.336;2023-03-01T00:11:25;95779.81;;;7.21;100.00
740;BME280;354;42.694;23.336;2023-03-01T00:13:53;95778.47;;;7.25;100.00
740;BME280;354;42.694;23.336;2023-03-01T00:16:25;95779.00;;;7.21;100.00
740;BME280;354;42.694;23.336;2023-03-01T00:18:51;95773.94;;;7.19;100.00
740;BME280;354;42.694;23.336;2023-03-01T00:21:17;95775.72;;;7.19;100.00
740;BME280;354;42.694;23.336;2023-03-01T00:23:42;95769.50;;;7.20;100.00
740;BME280;354;42.694;23.336;2023-03-01T00:26:10;95760.22;;;7.17;100.00
740;BME280;354;42.694;23.336;2023-03-01T00:28:37;95757.84;;;7.07;100.00
740;BME280;354;42.694;23.336;2023-03-01T00:31:07;95750.47;;;7.11;100.00
740;BME280;354;42.694;23.336;2023-03-01T00:33:33;95752.78;;;7.06;100.00
740;BME280;354;42.694;23.336;2023-03-01T00:35:59;95744.56;;;6.94;100.00
740;BME280;354;42.694;23.336;2023-03-01T00:38:24;95746.13;;;7.03;100.00
740;BME280;354;42.694;23.336;2023-03-01T00:40:50;95740.41;;;7.00;100.00
740;BME280;354;42.694;23.336;2023-03-01T00:43:15;95746.28;;;7.02;100.00
740;BME280;354;42.694;23.336;2023-03-01T00:45:41;95737.84;;;6.92;100.00
740;BME280;354;42.694;23.336;2023-03-01T00:48:06;95736.75;;;6.86;100.00
740;BME280;354;42.694;23.336;2023-03-01T00:50:31;95750.41;;;6.96;100.00
740;BME280;354;42.694;23.336;2023-03-01T00:52:57;95746.88;;;6.89;100.00
740;BME280;354;42.694;23.336;2023-03-01T00:55:23;95752.28;;;6.88;100.00
740;BME280;354;42.694;23.336;2023-03-01T00:57:48;95749.69;;;6.88;100.00
740;BME280;354;42.694;23.336;2023-03-01T01:00:14;95725.78;;;6.91;100.00
740;BME280;354;42.694;23.336;2023-03-01T01:02:40;95748.59;;;6.97;100.00
740;BME280;354;42.694;23.336;2023-03-01T01:05:06;95744.38;;;6.96;100.00
740;BME280;354;42.694;23.336;2023-03-01T01:07:31;95741.84;;;6.88;100.00
740;BME280;354;42.694;23.336;2023-03-01T01:09:56;95747.06;;;6.88;100.00
740;BME280;354;42.694;23.336;2023-03-01T01:12:22;95757.81;;;6.93;100.00
740;BME280;354;42.694;23.336;2023-03-01T01:14:47;95752.34;;;6.79;100.00
740;BME280;354;42.694;23.336;2023-03-01T01:17:13;95742.34;;;6.83;100.00
740;BME280;354;42.694;23.336;2023-03-01T01:19:38;95752.00;;;6.82;100.00
740;BME280;354;42.694;23.336;2023-03-01T01:22:04;95749.69;;;6.88;100.00
740;BME280;354;42.694;23.336;2023-03-01T01:24:29;95739.97;;;6.73;100.00
740;BME280;354;42.694;23.336;2023-03-01T01:26:55;95745.91;;;6.67;100.00
740;BME280;354;42.694;23.336;2023-03-01T01:29:20;95739.03;;;6.66;100.00
740;BME280;354;42.694;23.336;2023-03-01T01:31:46;95714.84;;;6.64;100.00
740;BME280;354;42.694;23.336;2023-03-01T01:34:16;95741.59;;;6.74;100.00
740;BME280;354;42.694;23.336;2023-03-01T01:36:43;95735.06;;;6.70;100.00
740;BME280;354;42.694;23.336;2023-03-01T01:39:08;95768.19;;;6.78;100.00
740;BME280;354;42.694;23.336;2023-03-01T01:41:39;95761.56;;;6.67;100.00
740;BME280;354;42.694;23.336;2023-03-01T01:44:22;95758.47;;;6.86;100.00
740;BME280;354;42.694;23.336;2023-03-01T01:46:53;95757.84;;;6.84;100.00
740;BME280;354;42.694;23.336;2023-03-01T01:49:31;95748.22;;;6.85;100.00
740;BME280;354;42.694;23.336;2023-03-01T01:54:32;95750.78;;;6.93;100.00
740;BME280;354;42.694;23.336;2023-03-01T01:57:03;95745.28;;;7.03;100.00
740;BME280;354;42.694;23.336;2023-03-01T01:59:32;95744.47;;;7.02;100.00
740;BME280;354;42.694;23.336;2023-03-01T02:02:00;95736.63;;;7.02;100.00
740;BME280;354;42.694;23.336;2023-03-01T02:04:27;95731.47;;;6.94;100.00
740;BME280;354;42.694;23.336;2023-03-01T02:07:19;95729.50;;;6.96;100.00
740;BME280;354;42.694;23.336;2023-03-01T02:09:51;95734.94;;;6.86;100.00
740;BME280;354;42.694;23.336;2023-03-01T02:12:20;95704.66;;;6.77;100.00
740;BME280;354;42.694;23.336;2023-03-01T02:14:46;95726.34;;;7.01;100.00
740;BME280;354;42.694;23.336;2023-03-01T02:17:14;95704.50;;;6.94;100.00
740;BME280;354;42.694;23.336;2023-03-01T02:22:54;95700.56;;;6.98;100.00
740;BME280;354;42.694;23.336;2023-03-01T02:28:59;95717.16;;;7.05;100.00
740;BME280;354;42.694;23.336;2023-03-01T02:30:54;95722.13;;;7.00;100.00
740;BME280;354;42.694;23.336;2023-03-01T02:33:39;95709.56;;;6.95;100.00
740;BME280;354;42.694;23.336;2023-03-01T02:36:08;95729.34;;;6.98;100.00
740;BME280;354;42.694;23.336;2023-03-01T02:38:34;95708.69;;;6.80;100.00
740;BME280;354;42.694;23.336;2023-03-01T02:41:00;95737.41;;;6.88;100.00
740;BME280;354;42.694;23.336;2023-03-01T02:43:30;95736.22;;;6.91;100.00
740;BME280;354;42.694;23.336;2023-03-01T02:46:06;95731.41;;;6.79;100.00
740;BME280;354;42.694;23.336;2023-03-01T02:48:52;95729.97;;;6.77;100.00
740;BME280;354;42.694;23.336;2023-03-01T02:54:06;95724.22;;;6.81;100.00
740;BME280;354;42.694;23.336;2023-03-01T02:56:33;95727.88;;;6.72;100.00
740;BME280;354;42.694;23.336;2023-03-01T02:58:59;95713.25;;;6.63;100.00
740;BME280;354;42.694;23.336;2023-03-01T03:01:26;95722.59;;;6.57;100.00
740;BME280;354;42.694;23.336;2023-03-01T03:04:02;95726.25;;;6.71;100.00
740;BME280;354;42.694;23.336;2023-03-01T03:06:28;95727.41;;;6.69;100.00
740;BME280;354;42.694;23.336;2023-03-01T03:08:54;95728.00;;;6.79;100.00
740;BME280;354;42.694;23.336;2023-03-01T03:11:19;95720.22;;;6.71;100.00
740;BME280;354;42.694;23.336;2023-03-01T03:13:46;95719.75;;;6.67;100.00
740;BME280;354;42.694;23.336;2023-03-01T03:16:13;95726.56;;;6.76;100.00
740;BME280;354;42.694;23.336;2023-03-01T03:18:39;95735.72;;;6.72;100.00
740;BME280;354;42.694;23.336;2023-03-01T03:21:08;95730.97;;;6.76;100.00
740;BME280;354;42.694;23.336;2023-03-01T03:23:35;95728.59;;;6.66;100.00
740;BME280;354;42.694;23.336;2023-03-01T03:26:02;95735.44;;;6.67;100.00
740;BME280;354;42.694;23.336;2023-03-01T03:28:29;95743.28;;;6.67;100.00
740;BME280;354;42.694;23.336;2023-03-01T03:30:56;95736.13;;;6.61;100.00
740;BME280;354;42.694;23.336;2023-03-01T03:33:21;95720.97;;;6.56;100.00
740;BME280;354;42.694;23.336;2023-03-01T03:35:48;95746.09;;;6.57;100.00
740;BME280;354;42.694;23.336;2023-03-01T03:38:16;95716.63;;;6.49;100.00
740;BME280;354;42.694;23.336;2023-03-01T03:40:47;95749.31;;;6.68;100.00
740;BME280;354;42.694;23.336;2023-03-01T03:43:16;95743.97;;;6.61;100.00
740;BME280;354;42.694;23.336;2023-03-01T03:45:47;95750.06;;;6.53;100.00
740;BME280;354;42.694;23.336;2023-03-01T03:48:13;95744.66;;;6.55;100.00
740;BME280;354;42.694;23.336;2023-03-01T03:50:39;95758.66;;;6.62;100.00
740;BME280;354;42.694;23.336;2023-03-01T03:53:09;95752.63;;;6.62;100.00
740;BME280;354;42.694;23.336;2023-03-01T03:55:35;95754.72;;;6.66;100.00
740;BME280;354;42.694;23.336;2023-03-01T03:58:05;95752.63;;;6.62;100.00
740;BME280;354;42.694;23.336;2023-03-01T04:00:52;95757.22;;;6.59;100.00
740;BME280;354;42.694;23.336;2023-03-01T04:03:19;95749.03;;;6.63;100.00
740;BME280;354;42.694;23.336;2023-03-01T04:05:45;95760.75;;;6.67;100.00
740;BME280;354;42.694;23.336;2023-03-01T04:08:11;95760.28;;;6.63;100.00
740;BME280;354;42.694;23.336;2023-03-01T04:10:40;95758.97;;;6.67;100.00
740;BME280;354;42.694;23.336;2023-03-01T04:13:08;95761.69;;;6.74;100.00
740;BME280;354;42.694;23.336;2023-03-01T04:15:34;95759.28;;;6.64;100.00
740;BME280;354;42.694;23.336;2023-03-01T04:18:00;95741.66;;;6.43;100.00
740;BME280;354;42.694;23.336;2023-03-01T04:20:28;95761.91;;;6.64;100.00
740;BME280;354;42.694;23.336;2023-03-01T04:23:06;95755.53;;;6.67;100.00
740;BME280;354;42.694;23.336;2023-03-01T04:25:52;95761.41;;;6.69;100.00
740;BME280;354;42.694;23.336;2023-03-01T04:28:22;95758.56;;;6.55;100.00
740;BME280;354;42.694;23.336;2023-03-01T04:30:50;95741.41;;;6.53;100.00
740;BME280;354;42.694;23.336;2023-03-01T04:33:16;95744.72;;;6.47;100.00
740;BME280;354;42.694;23.336;2023-03-01T04:35:41;95758.06;;;6.52;100.00
740;BME280;354;42.694;23.336;2023-03-01T04:38:07;95749.59;;;6.50;100.00
740;BME280;354;42.694;23.336;2023-03-01T04:40:33;95743.78;;;6.40;100.00
740;BME280;354;42.694;23.336;2023-03-01T04:42:58;95747.72;;;6.36;100.00
740;BME280;354;42.694;23.336;2023-03-01T04:45:24;95744.91;;;6.37;100.00
740;BME280;354;42.694;23.336;2023-03-01T04:47:49;95742.03;;;6.32;100.00
740;BME280;354;42.694;23.336;2023-03-01T04:50:17;95758.53;;;6.32;100.00
740;BME280;354;42.694;23.336;2023-03-01T04:52:46;95744.66;;;6.32;100.00
740;BME280;354;42.694;23.336;2023-03-01T04:55:12;95748.66;;;6.43;100.00
740;BME280;354;42.694;23.336;2023-03-01T04:57:38;95741.47;;;6.45;100.00
740;BME280;354;42.694;23.336;2023-03-01T05:00:06;95739.84;;;6.44;100.00
740;BME280;354;42.694;23.336;2023-03-01T05:02:59;95742.09;;;6.47;100.00
740;BME280;354;42.694;23.336;2023-03-01T05:05:31;95742.97;;;6.39;100.00
740;BME280;354;42.694;23.336;2023-03-01T05:08:00;95742.75;;;6.49;100.00
740;BME280;354;42.694;23.336;2023-03-01T05:10:28;95746.63;;;6.53;100.00
740;BME280;354;42.694;23.336;2023-03-01T05:12:57;95748.44;;;6.52;100.00
740;BME280;354;42.694;23.336;2023-03-01T05:15:24;95752.84;;;6.52;100.00
740;BME280;354;42.694;23.336;2023-03-01T05:17:54;95742.19;;;6.30;100.00
740;BME280;354;42.694;23.336;2023-03-01T05:20:20;95761.44;;;6.38;100.00
740;BME280;354;42.694;23.336;2023-03-01T05:22:49;95755.53;;;6.44;100.00
740;BME280;354;42.694;23.336;2023-03-01T05:25:15;95747.03;;;6.42;100.00
740;BME280;354;42.694;23.336;2023-03-01T05:27:40;95747.63;;;6.52;100.00
740;BME280;354;42.694;23.336;2023-03-01T05:30:06;95753.44;;;6.62;100.00
740;BME280;354;42.694;23.336;2023-03-01T05:32:49;95758.44;;;6.49;100.00
740;BME280;354;42.694;23.336;2023-03-01T05:35:21;95762.47;;;6.59;100.00
740;BME280;354;42.694;23.336;2023-03-01T05:37:48;95749.25;;;6.53;100.00
740;BME280;354;42.694;23.336;2023-03-01T05:40:18;95752.84;;;6.52;100.00
740;BME280;354;42.694;23.336;2023-03-01T05:42:52;95763.97;;;6.54;100.00
740;BME280;354;42.694;23.336;2023-03-01T05:45:19;95768.00;;;6.56;100.00
740;BME280;354;42.694;23.336;2023-03-01T05:47:47;95764.22;;;6.59;100.00
740;BME280;354;42.694;23.336;2023-03-01T05:52:48;95765.16;;;6.43;100.00
740;BME280;354;42.694;23.336;2023-03-01T05:55:16;95747.72;;;6.36;100.00
740;BME280;354;42.694;23.336;2023-03-01T05:57:42;95771.88;;;6.38;100.00
740;BME280;354;42.694;23.336;2023-03-01T06:00:09;95788.38;;;6.38;100.00
740;BME280;354;42.694;23.336;2023-03-01T06:02:35;95783.78;;;6.40;100.00
740;BME280;354;42.694;23.336;2023-03-01T06:05:00;95784.03;;;6.53;100.00
740;BME280;354;42.694;23.336;2023-03-01T06:07:25;95784.50;;;6.57;100.00
740;BME280;354;42.694;23.336;2023-03-01T06:09:51;95789.09;;;6.55;100.00
740;BME280;354;42.694;23.336;2023-03-01T06:12:16;95790.81;;;6.71;100.00
740;BME280;354;42.694;23.336;2023-03-01T06:14:42;95793.56;;;6.69;100.00
740;BME280;354;42.694;23.336;2023-03-01T06:17:07;95794.25;;;6.71;100.00
740;BME280;354;42.694;23.336;2023-03-01T06:19:33;95792.06;;;6.75;100.00
740;BME280;354;42.694;23.336;2023-03-01T06:21:58;95805.22;;;6.90;100.00
740;BME280;354;42.694;23.336;2023-03-01T06:24:24;95797.66;;;6.95;100.00
740;BME280;354;42.694;23.336;2023-03-01T06:26:49;95797.47;;;6.96;100.00
740;BME280;354;42.694;23.336;2023-03-01T06:29:14;95795.88;;;6.95;100.00
740;BME280;354;42.694;23.336;2023-03-01T06:31:40;95803.00;;;6.78;100.00
740;BME280;354;42.694;23.336;2023-03-01T06:34:05;95796.78;;;6.79;100.00
740;BME280;354;42.694;23.336;2023-03-01T06:36:31;95791.03;;;6.84;100.00
740;BME280;354;42.694;23.336;2023-03-01T06:38:56;95792.59;;;6.70;100.00
740;BME280;354;42.694;23.336;2023-03-01T06:41:21;95795.56;;;6.67;100.00
740;BME280;354;42.694;23.336;2023-03-01T06:43:47;95800.97;;;6.66;100.00
740;BME280;354;42.694;23.336;2023-03-01T06:46:12;95786.22;;;6.73;100.00
740;BME280;354;42.694;23.336;2023-03-01T06:48:37;95789.50;;;6.98;100.00
740;BME280;354;42.694;23.336;2023-03-01T06:51:03;95785.88;;;6.99;100.00
740;BME280;354;42.694;23.336;2023-03-01T06:53:29;95791.69;;;7.09;100.00
740;BME280;354;42.694;23.336;2023-03-01T06:55:55;95793.53;;;7.23;100.00
740;BME280;354;42.694;23.336;2023-03-01T06:58:21;95794.28;;;7.32;100.00
740;BME280;354;42.694;23.336;2023-03-01T07:00:46;95793.19;;;7.26;100.00
740;BME280;354;42.694;23.336;2023-03-01T07:03:12;95785.78;;;7.30;100.00
740;BME280;354;42.694;23.336;2023-03-01T07:05:37;95802.22;;;7.38;100.00
740;BME280;354;42.694;23.336;2023-03-01T07:08:02;95797.00;;;7.38;100.00
740;BME280;354;42.694;23.336;2023-03-01T07:10:28;95803.81;;;7.48;100.00
740;BME280;354;42.694;23.336;2023-03-01T07:12:57;95785.09;;;7.13;100.00
740;BME280;354;42.694;23.336;2023-03-01T07:15:23;95793.09;;;7.34;100.00
740;BME280;354;42.694;23.336;2023-03-01T07:17:49;95798.09;;;7.44;100.00
740;BME280;354;42.694;23.336;2023-03-01T07:20:16;95778.59;;;7.47;100.00
740;BME280;354;42.694;23.336;2023-03-01T07:22:42;95782.84;;;7.48;100.00
740;BME280;354;42.694;23.336;2023-03-01T07:25:09;95777.06;;;7.37;100.00
740;BME280;354;42.694;23.336;2023-03-01T07:27:35;95766.16;;;7.49;100.00
740;BME280;354;42.694;23.336;2023-03-01T07:30:00;95768.59;;;7.80;100.00
740;BME280;354;42.694;23.336;2023-03-01T07:32:26;95782.59;;;8.02;100.00
740;BME280;354;42.694;23.336;2023-03-01T07:34:51;95782.88;;;8.22;100.00
740;BME280;354;42.694;23.336;2023-03-01T07:37:16;95777.78;;;8.35;100.00
740;BME280;354;42.694;23.336;2023-03-01T07:39:42;95767.28;;;8.35;100.00
740;BME280;354;42.694;23.336;2023-03-01T07:42:08;95743.03;;;8.26;100.00
740;BME280;354;42.694;23.336;2023-03-01T07:44:33;95775.16;;;8.50;100.00
740;BME280;354;42.694;23.336;2023-03-01T07:47:00;95777.72;;;8.79;100.00
740;BME280;354;42.694;23.336;2023-03-01T07:49:25;95772.84;;;8.97;100.00
740;BME280;354;42.694;23.336;2023-03-01T07:51:52;95763.63;;;8.80;100.00
740;BME280;354;42.694;23.336;2023-03-01T07:54:18;95769.28;;;9.05;100.00
740;BME280;354;42.694;23.336;2023-03-01T07:56:43;95773.09;;;9.24;100.00
740;BME280;354;42.694;23.336;2023-03-01T07:59:09;95756.34;;;9.04;100.00
740;BME280;354;42.694;23.336;2023-03-01T08:01:34;95762.09;;;9.35;100.00
740;BME280;354;42.694;23.336;2023-03-01T08:04:00;95755.00;;;9.08;100.00
740;BME280;354;42.694;23.336;2023-03-01T08:06:25;95751.16;;;9.10;100.00
740;BME280;354;42.694;23.336;2023-03-01T08:08:50;95770.63;;;9.44;100.00
740;BME280;354;42.694;23.336;2023-03-01T08:11:16;95751.25;;;9.45;100.00
740;BME280;354;42.694;23.336;2023-03-01T08:13:43;95760.34;;;9.49;100.00
740;BME280;354;42.694;23.336;2023-03-01T08:16:13;95753.44;;;9.41;100.00
740;BME280;354;42.694;23.336;2023-03-01T08:18:39;95750.50;;;9.51;100.00
740;BME280;354;42.694;23.336;2023-03-01T08:21:11;95754.41;;;9.62;100.00
740;BME280;354;42.694;23.336;2023-03-01T08:23:37;95753.41;;;9.63;100.00
740;BME280;354;42.694;23.336;2023-03-01T08:26:15;95750.06;;;9.47;100.00
740;BME280;354;42.694;23.336;2023-03-01T08:28:41;95755.72;;;9.79;100.00
740;BME280;354;42.694;23.336;2023-03-01T08:31:17;95752.69;;;9.47;100.00
740;BME280;354;42.694;23.336;2023-03-01T08:33:44;95746.97;;;9.72;100.00
740;BME280;354;42.694;23.336;2023-03-01T08:36:09;95733.34;;;9.55;100.00
740;BME280;354;42.694;23.336;2023-03-01T08:38:35;95744.53;;;9.70;100.00
740;BME280;354;42.694;23.336;2023-03-01T08:41:02;95753.47;;;9.76;100.00
740;BME280;354;42.694;23.336;2023-03-01T08:43:28;95742.50;;;10.00;100.00
740;BME280;354;42.694;23.336;2023-03-01T08:45:53;95747.94;;;10.34;100.00
740;BME280;354;42.694;23.336;2023-03-01T08:48:19;95743.59;;;10.61;100.00
740;BME280;354;42.694;23.336;2023-03-01T08:50:44;95721.31;;;10.57;100.00
740;BME280;354;42.694;23.336;2023-03-01T08:53:09;95740.53;;;10.64;100.00
740;BME280;354;42.694;23.336;2023-03-01T08:55:35;95738.47;;;10.39;100.00
740;BME280;354;42.694;23.336;2023-03-01T08:58:00;95757.53;;;10.13;100.00
740;BME280;354;42.694;23.336;2023-03-01T09:00:26;95728.34;;;10.01;100.00
740;BME280;354;42.694;23.336;2023-03-01T09:02:51;95753.25;;;10.53;100.00
740;BME280;354;42.694;23.336;2023-03-01T09:05:16;95755.81;;;10.88;100.00
740;BME280;354;42.694;23.336;2023-03-01T09:07:42;95747.31;;;11.13;100.00
740;BME280;354;42.694;23.336;2023-03-01T09:10:08;95733.53;;;11.24;100.00
740;BME280;354;42.694;23.336;2023-03-01T09:12:33;95743.88;;;11.45;100.00
740;BME280;354;42.694;23.336;2023-03-01T09:14:59;95736.72;;;11.92;100.00
740;BME280;354;42.694;23.336;2023-03-01T09:17:24;95746.50;;;11.65;100.00
740;BME280;354;42.694;23.336;2023-03-01T09:19:50;95750.38;;;11.49;100.00
740;BME280;354;42.694;23.336;2023-03-01T09:22:15;95750.97;;;11.51;100.00
740;BME280;354;42.694;23.336;2023-03-01T09:24:40;95727.09;;;11.26;100.00
740;BME280;354;42.694;23.336;2023-03-01T09:27:06;95745.66;;;10.85;100.00
740;BME280;354;42.694;23.336;2023-03-01T09:29:36;95746.00;;;10.55;100.00
740;BME280;354;42.694;23.336;2023-03-01T09:32:02;95721.69;;;10.53;100.00
740;BME280;354;42.694;23.336;2023-03-01T09:34:27;95752.78;;;10.30;100.00
740;BME280;354;42.694;23.336;2023-03-01T09:36:53;95746.59;;;10.16;100.00
740;BME280;354;42.694;23.336;2023-03-01T09:39:19;95748.81;;;10.06;100.00
740;BME280;354;42.694;23.336;2023-03-01T09:42:01;95738.59;;;9.55;100.00
740;BME280;354;42.694;23.336;2023-03-01T09:44:32;95734.53;;;9.53;100.00
740;BME280;354;42.694;23.336;2023-03-01T09:47:02;95729.34;;;9.66;100.00
740;BME280;354;42.694;23.336;2023-03-01T09:49:30;95730.81;;;9.40;100.00
740;BME280;354;42.694;23.336;2023-03-01T09:52:01;95733.91;;;9.79;100.00
740;BME280;354;42.694;23.336;2023-03-01T09:54:30;95712.84;;;10.13;100.00
740;BME280;354;42.694;23.336;2023-03-01T09:57:09;95714.38;;;10.36;100.00
740;BME280;354;42.694;23.336;2023-03-01T10:00:02;95712.28;;;10.99;100.00
740;BME280;354;42.694;23.336;2023-03-01T10:10:07;95688.78;;;12.22;100.00
740;BME280;354;42.694;23.336;2023-03-01T10:12:40;95705.53;;;12.40;100.00
740;BME280;354;42.694;23.336;2023-03-01T10:15:14;95716.66;;;12.04;100.00
740;BME280;354;42.694;23.336;2023-03-01T10:17:50;95708.13;;;11.96;100.00
740;BME280;354;42.694;23.336;2023-03-01T10:20:24;95712.00;;;11.93;100.00
740;BME280;354;42.694;23.336;2023-03-01T10:22:50;95700.00;;;11.97;100.00
740;BME280;354;42.694;23.336;2023-03-01T10:25:44;95700.63;;;11.99;100.00
740;BME280;354;42.694;23.336;2023-03-01T10:28:18;95677.34;;;11.70;100.00
740;BME280;354;42.694;23.336;2023-03-01T10:30:45;95682.00;;;11.94;100.00
740;BME280;354;42.694;23.336;2023-03-01T10:33:21;95687.38;;;12.12;100.00
740;BME280;354;42.694;23.336;2023-03-01T10:35:48;95679.72;;;12.04;100.00
740;BME280;354;42.694;23.336;2023-03-01T10:38:15;95690.00;;;12.19;100.00
740;BME280;354;42.694;23.336;2023-03-01T10:40:53;95680.31;;;12.51;100.00
740;BME280;354;42.694;23.336;2023-03-01T10:43:20;95672.97;;;12.22;100.00
740;BME280;354;42.694;23.336;2023-03-01T10:45:47;95675.94;;;11.87;100.00
740;BME280;354;42.694;23.336;2023-03-01T10:48:16;95674.56;;;12.23;100.00
740;BME280;354;42.694;23.336;2023-03-01T10:50:48;95657.13;;;12.22;100.00
740;BME280;354;42.694;23.336;2023-03-01T10:53:28;95673.31;;;12.63;100.00
740;BME280;354;42.694;23.336;2023-03-01T10:58:26;95659.28;;;11.86;100.00
740;BME280;354;42.694;23.336;2023-03-01T11:00:53;95680.78;;;11.90;100.00
740;BME280;354;42.694;23.336;2023-03-01T11:03:25;95674.06;;;11.81;100.00
740;BME280;354;42.694;23.336;2023-03-01T11:06:01;95658.94;;;12.28;100.00
740;BME280;354;42.694;23.336;2023-03-01T11:08:47;95677.69;;;12.83;98.74
740;BME280;354;42.694;23.336;2023-03-01T11:13:59;95683.84;;;11.87;100.00
740;BME280;354;42.694;23.336;2023-03-01T11:24:11;95669.13;;;12.56;100.00
740;BME280;354;42.694;23.336;2023-03-01T11:26:41;95650.03;;;12.60;100.00
740;BME280;354;42.694;23.336;2023-03-01T11:29:16;95669.22;;;12.36;100.00
740;BME280;354;42.694;23.336;2023-03-01T11:31:43;95660.00;;;12.13;100.00
740;BME280;354;42.694;23.336;2023-03-01T11:34:14;95644.16;;;11.55;100.00
740;BME280;354;42.694;23.336;2023-03-01T11:36:53;95670.25;;;11.77;100.00
740;BME280;354;42.694;23.336;2023-03-01T11:39:33;95666.19;;;11.74;100.00
740;BME280;354;42.694;23.336;2023-03-01T11:42:06;95634.38;;;11.82;100.00
740;BME280;354;42.694;23.336;2023-03-01T11:44:38;95651.38;;;11.93;100.00
740;BME280;354;42.694;23.336;2023-03-01T11:49:55;95630.34;;;11.67;100.00
740;BME280;354;42.694;23.336;2023-03-01T12:00:22;95618.41;;;11.57;100.00
740;BME280;354;42.694;23.336;2023-03-01T12:03:09;95631.81;;;11.56;100.00
740;BME280;354;42.694;23.336;2023-03-01T12:05:48;95631.44;;;11.26;100.00
740;BME280;354;42.694;23.336;2023-03-01T12:11:07;95632.00;;;11.61;100.00
740;BME280;354;42.694;23.336;2023-03-01T12:19:08;95616.22;;;11.41;100.00
740;BME280;354;42.694;23.336;2023-03-01T12:22:09;95618.84;;;11.54;100.00
740;BME280;354;42.694;23.336;2023-03-01T12:30:32;95615.19;;;11.55;100.00
740;BME280;354;42.694;23.336;2023-03-01T12:33:02;95607.69;;;11.52;100.00
740;BME280;354;42.694;23.336;2023-03-01T12:35:40;95603.59;;;11.63;100.00
740;BME280;354;42.694;23.336;2023-03-01T12:43:47;95600.53;;;11.73;100.00
740;BME280;354;42.694;23.336;2023-03-01T12:46:28;95591.31;;;12.02;100.00
740;BME280;354;42.694;23.336;2023-03-01T12:51:35;95599.66;;;11.34;100.00
740;BME280;354;42.694;23.336;2023-03-01T12:54:11;95597.78;;;11.41;100.00
740;BME280;354;42.694;23.336;2023-03-01T12:56:39;95599.78;;;11.52;100.00
740;BME280;354;42.694;23.336;2023-03-01T13:09:51;95607.75;;;11.26;100.00
740;BME280;354;42.694;23.336;2023-03-01T13:12:46;95598.09;;;10.80;100.00
740;BME280;354;42.694;23.336;2023-03-01T13:15:32;95605.59;;;10.83;100.00
740;BME280;354;42.694;23.336;2023-03-01T13:20:51;95595.84;;;10.64;100.00
740;BME280;354;42.694;23.336;2023-03-01T13:31:03;95597.66;;;10.76;100.00
740;BME280;354;42.694;23.336;2023-03-01T13:35:56;95606.00;;;10.67;100.00
740;BME280;354;42.694;23.336;2023-03-01T13:41:09;95595.06;;;10.57;100.00
740;BME280;354;42.694;23.336;2023-03-01T13:43:36;95603.94;;;10.42;100.00
740;BME280;354;42.694;23.336;2023-03-01T13:46:21;95602.53;;;10.33;100.00
740;BME280;354;42.694;23.336;2023-03-01T13:48:50;95593.41;;;10.36;100.00
740;BME280;354;42.694;23.336;2023-03-01T13:51:23;95601.31;;;10.42;100.00
740;BME280;354;42.694;23.336;2023-03-01T13:53:49;95596.28;;;10.61;100.00
740;BME280;354;42.694;23.336;2023-03-01T13:56:21;95592.63;;;10.75;100.00
740;BME280;354;42.694;23.336;2023-03-01T13:59:02;95590.59;;;10.57;100.00
740;BME280;354;42.694;23.336;2023-03-01T14:01:33;95592.59;;;10.42;100.00
740;BME280;354;42.694;23.336;2023-03-01T14:04:00;95597.06;;;10.41;100.00
740;BME280;354;42.694;23.336;2023-03-01T14:06:28;95590.78;;;10.29;100.00
740;BME280;354;42.694;23.336;2023-03-01T14:09:25;95568.84;;;10.02;100.00
740;BME280;354;42.694;23.336;2023-03-01T14:15:06;95594.25;;;10.69;100.00
740;BME280;354;42.694;23.336;2023-03-01T14:17:52;95588.97;;;10.76;100.00
740;BME280;354;42.694;23.336;2023-03-01T14:20:25;95591.59;;;10.76;100.00
740;BME280;354;42.694;23.336;2023-03-01T14:22:54;95594.84;;;10.65;100.00
740;BME280;354;42.694;23.336;2023-03-01T14:25:33;95592.38;;;10.23;100.00
740;BME280;354;42.694;23.336;2023-03-01T14:28:04;95587.72;;;10.25;100.00
740;BME280;354;42.694;23.336;2023-03-01T14:30:57;95576.97;;;10.07;100.00
740;BME280;354;42.694;23.336;2023-03-01T14:33:35;95587.84;;;9.91;100.00
740;BME280;354;42.694;23.336;2023-03-01T14:36:05;95592.50;;;9.95;100.00
740;BME280;354;42.694;23.336;2023-03-01T14:38:37;95589.81;;;9.89;100.00
740;BME280;354;42.694;23.336;2023-03-01T14:43:30;95588.00;;;9.83;100.00
740;BME280;354;42.694;23.336;2023-03-01T14:45:57;95591.38;;;9.70;100.00
740;BME280;354;42.694;23.336;2023-03-01T14:48:22;95597.81;;;9.61;100.00
740;BME280;354;42.694;23.336;2023-03-01T14:50:49;95595.34;;;9.46;100.00
740;BME280;354;42.694;23.336;2023-03-01T14:53:21;95575.47;;;9.30;100.00
740;BME280;354;42.694;23.336;2023-03-01T14:55:52;95580.78;;;9.43;100.00
740;BME280;354;42.694;23.336;2023-03-01T14:58:21;95582.22;;;9.53;100.00
740;BME280;354;42.694;23.336;2023-03-01T15:00:59;95590.09;;;9.46;100.00
740;BME280;354;42.694;23.336;2023-03-01T15:03:31;95584.16;;;9.31;100.00
740;BME280;354;42.694;23.336;2023-03-01T15:06:00;95586.47;;;9.12;100.00
740;BME280;354;42.694;23.336;2023-03-01T15:08:26;95590.53;;;9.15;100.00
740;BME280;354;42.694;23.336;2023-03-01T15:11:17;95578.72;;;8.97;100.00
740;BME280;354;42.694;23.336;2023-03-01T15:13:44;95574.06;;;9.00;100.00
740;BME280;354;42.694;23.336;2023-03-01T15:16:14;95576.06;;;8.91;100.00
740;BME280;354;42.694;23.336;2023-03-01T15:18:47;95584.25;;;8.81;100.00
740;BME280;354;42.694;23.336;2023-03-01T15:21:17;95571.19;;;8.60;100.00